Time;durP1;ratioP1;P1;durP2;ratioP2;P2;SDS_P1;SDS_P2;PMS_P1;PMS_P2;Temp;Humidity;BMP_temperature;BMP_pressure;BME280_temperature;BME280_humidity;BME280_pressure;Samples;Min_cycle;Max_cycle;Signal;HPM_P1;HPM_P2
2021/08/01 00:02:43;;;;;;;7.23;3.07;;;16.60;99.90;;;;;;5013782;28;20755;-80
2021/08/01 00:05:19;;;;;;;4.13;3.60;;;16.60;99.90;;;;;;5013689;28;20429;-80
2021/08/01 00:08:01;;;;;;;9.27;3.70;;;16.60;99.90;;;;;;5013826;28;20164;-79
2021/08/01 00:10:27;;;;;;;5.87;3.67;;;16.50;99.90;;;;;;5027458;28;20420;-75
2021/08/01 00:12:53;;;;;;;6.20;3.60;;;16.50;99.90;;;;;;5033285;28;20923;-75
2021/08/01 00:15:18;;;;;;;7.40;4.10;;;16.50;99.90;;;;;;5024953;28;20168;-75
2021/08/01 00:17:44;;;;;;;9.83;4.57;;;16.50;99.90;;;;;;5033714;28;20211;-75
2021/08/01 00:20:10;;;;;;;5.77;3.80;;;16.50;99.90;;;;;;5033340;28;20168;-75
2021/08/01 00:22:36;;;;;;;6.43;3.83;;;16.50;99.90;;;;;;5033082;28;20203;-75
2021/08/01 00:25:19;;;;;;;7.73;4.07;;;16.50;99.90;;;;;;5033707;28;20451;-79
2021/08/01 00:31:49;;;;;;;4.53;3.63;;;16.40;99.90;;;;;;5013312;28;20883;-79
2021/08/01 00:34:14;;;;;;;6.83;3.73;;;16.40;99.90;;;;;;5015078;28;20456;-79
2021/08/01 00:36:40;;;;;;;5.43;3.50;;;16.40;99.90;;;;;;5013437;28;20407;-79
2021/08/01 00:39:05;;;;;;;11.10;4.50;;;16.40;99.90;;;;;;5013673;28;20168;-80
2021/08/01 00:45:01;;;;;;;5.13;3.63;;;16.40;99.90;;;;;;5013211;28;20536;-79
2021/08/01 00:50:49;;;;;;;6.70;4.00;;;16.40;99.90;;;;;;5033008;28;20533;-79
2021/08/01 00:53:25;;;;;;;12.17;4.03;;;16.40;99.90;;;;;;5033220;28;20454;-79
2021/08/01 00:55:55;;;;;;;7.60;3.90;;;16.40;99.90;;;;;;5027365;28;20421;-79
2021/08/01 00:58:37;;;;;;;7.17;4.30;;;16.40;99.90;;;;;;5024339;28;20421;-79
2021/08/01 01:04:39;;;;;;;5.93;3.50;;;16.40;99.90;;;;;;5013318;28;20379;-80
2021/08/01 01:10:42;;;;;;;11.03;3.80;;;16.30;99.90;;;;;;5020438;28;20389;-75
2021/08/01 01:13:26;;;;;;;9.37;3.80;;;16.30;99.90;;;;;;5022119;28;20462;-75
2021/08/01 01:16:01;;;;;;;10.30;3.53;;;16.30;99.90;;;;;;5027541;28;20461;-75
2021/08/01 01:18:38;;;;;;;6.90;4.23;;;16.30;99.90;;;;;;5022900;28;20473;-75
2021/08/01 01:21:35;;;;;;;7.70;3.80;;;16.30;99.90;;;;;;5035712;28;20487;-75
2021/08/01 01:24:08;;;;;;;3.93;3.53;;;16.30;99.90;;;;;;5022882;28;20383;-75
2021/08/01 01:26:47;;;;;;;8.23;4.23;;;;;;;;;;5021054;28;22265;-75
2021/08/01 01:29:19;;;;;;;6.80;3.60;;;16.20;99.90;;;;;;5024911;28;20412;-76
2021/08/01 01:31:50;;;;;;;7.23;3.60;;;16.20;99.90;;;;;;5016792;28;20431;-75
2021/08/01 01:34:29;;;;;;;4.40;3.40;;;16.10;99.90;;;;;;5028745;28;20432;-75
2021/08/01 01:36:59;;;;;;;4.83;4.00;;;16.10;99.90;;;;;;5036198;28;20472;-75
2021/08/01 01:39:27;;;;;;;10.50;4.20;;;16.10;99.90;;;;;;5035371;28;20413;-79
2021/08/01 01:42:13;;;;;;;7.30;4.63;;;16.00;99.90;;;;;;5024830;28;20456;-79
2021/08/01 01:45:18;;;;;;;5.37;4.37;;;16.00;99.90;;;;;;5035871;28;21210;-79
2021/08/01 01:51:05;;;;;;;6.07;3.60;;;16.00;99.90;;;;;;5021267;28;20458;-79
2021/08/01 01:56:55;;;;;;;4.97;3.87;;;15.90;99.90;;;;;;5035633;28;20441;-79
2021/08/01 02:06:31;;;;;;;4.73;3.97;;;15.90;99.90;;;;;;5035359;28;20394;-79
2021/08/01 02:09:19;;;;;;;7.53;3.90;;;15.80;99.90;;;;;;5029900;28;20506;-79
2021/08/01 02:12:23;;;;;;;5.13;3.80;;;15.80;99.90;;;;;;5026317;28;20750;-75
2021/08/01 02:15:05;;;;;;;4.40;3.87;;;15.80;99.90;;;;;;5030415;28;20382;-76
2021/08/01 02:17:41;;;;;;;6.80;3.83;;;15.80;99.90;;;;;;5030703;28;20431;-75
2021/08/01 02:20:09;;;;;;;8.33;4.00;;;15.80;99.90;;;;;;5029698;28;20443;-75
2021/08/01 02:22:45;;;;;;;5.80;4.10;;;15.80;99.90;;;;;;5034598;28;20390;-75
2021/08/01 02:25:13;;;;;;;6.13;3.80;;;15.90;99.90;;;;;;5034107;28;20381;-75
2021/08/01 02:27:42;;;;;;;9.33;4.07;;;15.90;99.90;;;;;;5035005;28;20498;-76
2021/08/01 02:30:14;;;;;;;9.00;4.60;;;16.00;99.90;;;;;;5034837;28;20392;-75
2021/08/01 02:32:50;;;;;;;4.17;3.77;;;16.00;99.90;;;;;;5019760;28;20513;-75
2021/08/01 02:35:20;;;;;;;6.97;4.50;;;16.10;99.90;;;;;;5026300;28;20757;-75
2021/08/01 02:37:53;;;;;;;8.53;4.10;;;16.10;99.90;;;;;;5035300;28;20876;-75
2021/08/01 02:44:37;;;;;;;4.70;4.03;;;16.20;99.90;;;;;;5015190;28;20350;-79
2021/08/01 02:50:40;;;;;;;9.70;4.13;;;16.20;99.90;;;;;;5018995;28;20415;-79
2021/08/01 02:56:31;;;;;;;6.90;3.90;;;16.20;99.90;;;;;;5015248;28;20391;-75
2021/08/01 02:59:14;;;;;;;4.87;3.90;;;16.30;99.90;;;;;;5015141;28;20400;-75
2021/08/01 03:01:45;;;;;;;8.30;3.70;;;16.30;99.90;;;;;;5016021;28;20754;-75
2021/08/01 03:04:19;;;;;;;5.20;4.10;;;16.30;99.90;;;;;;5034710;28;20480;-75
2021/08/01 03:06:45;;;;;;;5.40;3.73;;;16.30;99.90;;;;;;5034493;28;20421;-75
2021/08/01 03:09:20;;;;;;;8.23;4.20;;;16.30;99.90;;;;;;5034533;28;20451;-75
2021/08/01 03:15:25;;;;;;;6.20;4.20;;;16.30;99.90;;;;;;5019572;28;20426;-79
2021/08/01 03:21:12;;;;;;;8.47;5.17;;;16.20;99.90;;;;;;5015453;28;20393;-81
2021/08/01 03:27:07;;;;;;;15.23;4.77;;;16.20;99.90;;;;;;5034010;28;20187;-75
2021/08/01 03:29:33;;;;;;;7.53;4.83;;;16.20;99.90;;;;;;5034082;28;20370;-75
2021/08/01 03:32:07;;;;;;;6.20;4.73;;;16.30;99.90;;;;;;5034044;28;20403;-75
2021/08/01 03:34:43;;;;;;;8.10;4.80;;;16.30;99.90;;;;;;5033984;28;20167;-75
2021/08/01 03:37:19;;;;;;;6.23;4.77;;;16.30;99.90;;;;;;5034084;28;20385;-75
2021/08/01 03:39:56;;;;;;;10.87;4.20;;;;;;;;;;5034079;28;20729;-75
2021/08/01 03:45:43;;;;;;;7.60;4.50;;;16.20;99.90;;;;;;5033750;28;20388;-79
2021/08/01 03:51:31;;;;;;;7.10;5.03;;;16.10;99.90;;;;;;5031615;28;20187;-79
2021/08/01 03:57:37;;;;;;;6.67;4.30;;;16.10;99.90;;;;;;5014342;28;20187;-75
2021/08/01 04:00:13;;;;;;;9.23;4.70;;;16.10;99.90;;;;;;5012958;28;20415;-75
2021/08/01 04:02:39;;;;;;;5.90;4.33;;;16.10;99.90;;;;;;5014135;28;20923;-75
2021/08/01 04:05:06;;;;;;;7.57;4.67;;;16.00;99.90;;;;;;5031314;28;20427;-75
2021/08/01 04:07:43;;;;;;;6.47;4.50;;;16.00;99.90;;;;;;5033613;28;20161;-75
2021/08/01 04:10:37;;;;;;;8.27;4.43;;;16.00;99.90;;;;;;5023602;28;20938;-77
2021/08/01 04:13:07;;;;;;;6.53;4.10;;;16.00;99.90;;;;;;5024571;28;20453;-76
2021/08/01 04:15:46;;;;;;;7.03;4.40;;;16.10;99.90;;;;;;5027597;28;20407;-75
2021/08/01 04:18:12;;;;;;;5.40;4.13;;;16.10;99.90;;;;;;5016807;28;20395;-75
2021/08/01 04:20:38;;;;;;;5.10;4.37;;;16.00;99.90;;;;;;5014115;28;20443;-75
2021/08/01 04:23:13;;;;;;;10.10;5.40;;;16.00;99.90;;;;;;5026284;28;20177;-75
2021/08/01 04:26:19;;;;;;;7.80;5.30;;;15.90;99.90;;;;;;5034056;28;20160;-76
2021/08/01 04:28:44;;;;;;;7.53;4.30;;;15.90;99.90;;;;;;5033322;28;20747;-75
2021/08/01 04:31:10;;;;;;;10.43;4.43;;;15.90;99.90;;;;;;5033442;28;20402;-75
2021/08/01 04:33:43;;;;;;;6.30;4.83;;;16.00;99.90;;;;;;5033022;28;20188;-75
2021/08/01 04:36:13;;;;;;;6.57;4.73;;;16.00;99.90;;;;;;5033342;28;20668;-75
2021/08/01 04:38:39;;;;;;;7.87;4.93;;;16.00;99.90;;;;;;5024598;28;20478;-75
2021/08/01 04:41:13;;;;;;;8.23;4.43;;;16.00;99.90;;;;;;5014771;28;20397;-79
2021/08/01 04:47:01;;;;;;;6.80;4.30;;;16.00;99.90;;;;;;5036810;28;20402;-79
2021/08/01 04:50:06;;;;;;;6.20;4.27;;;16.00;99.90;;;;;;5036965;28;20780;-79
2021/08/01 04:56:13;;;;;;;8.87;5.10;;;16.00;99.90;;;;;;5036923;28;20379;-79
2021/08/01 05:02:00;;;;;;;10.40;4.83;;;16.10;99.90;;;;;;5036510;28;20460;-79
2021/08/01 05:04:27;;;;;;;7.67;4.83;;;16.10;99.90;;;;;;5036877;28;20373;-79
2021/08/01 05:10:14;;;;;;;6.40;4.37;;;16.30;99.90;;;;;;5020523;28;20369;-80
2021/08/01 05:12:43;;;;;;;7.10;4.50;;;16.40;99.90;;;;;;5024724;28;20462;-75
2021/08/01 05:15:25;;;;;;;6.80;4.40;;;16.40;99.90;;;;;;5033210;28;20218;-75
2021/08/01 05:17:55;;;;;;;5.50;4.27;;;16.60;99.90;;;;;;5029454;28;20406;-75
2021/08/01 05:20:43;;;;;;;5.27;4.37;;;16.70;99.90;;;;;;5036481;28;20907;-75
2021/08/01 05:23:19;;;;;;;7.10;4.60;;;16.80;99.90;;;;;;5035470;28;20423;-75
2021/08/01 05:25:45;;;;;;;4.63;4.17;;;17.00;99.90;;;;;;5036276;28;20430;-75
2021/08/01 05:28:11;;;;;;;10.30;4.43;;;17.00;99.90;;;;;;5036378;28;20400;-75
2021/08/01 05:30:49;;;;;;;4.50;3.73;;;17.10;99.90;;;;;;5036388;28;20157;-75
2021/08/01 05:33:16;;;;;;;5.63;4.23;;;17.20;99.90;;;;;;5026073;28;20248;-75
2021/08/01 05:35:42;;;;;;;5.87;4.90;;;;;;;;;;5023725;28;20412;-75
2021/08/01 05:38:14;;;;;;;6.50;4.67;;;17.40;99.90;;;;;;5036446;28;20506;-75
2021/08/01 05:40:42;;;;;;;5.07;3.90;;;17.60;99.90;;;;;;5035859;28;20924;-75
2021/08/01 05:43:19;;;;;;;4.40;3.50;;;17.80;99.90;;;;;;5036321;28;20637;-79
2021/08/01 05:46:09;;;;;;;9.33;4.60;;;18.00;99.90;;;;;;5035859;28;20413;-80
2021/08/01 05:48:38;;;;;;;8.03;4.17;;;18.10;99.90;;;;;;5035804;28;20394;-80
2021/08/01 05:51:07;;;;;;;5.87;3.90;;;18.20;99.90;;;;;;5035322;28;20408;-80
2021/08/01 05:53:43;;;;;;;5.93;4.30;;;18.40;99.90;;;;;;5024448;28;20505;-80
2021/08/01 05:56:12;;;;;;;8.40;4.40;;;18.50;99.90;;;;;;5022359;28;20967;-77
2021/08/01 06:02:00;;;;;;;9.10;4.20;;;18.90;99.90;;;;;;5035437;28;20412;-80
2021/08/01 06:04:37;;;;;;;7.23;4.20;;;18.90;99.90;;;;;;5020583;28;20427;-80
2021/08/01 06:07:37;;;;;;;6.43;4.60;;;19.00;99.90;;;;;;5015650;28;20257;-80
2021/08/01 06:10:08;;;;;;;5.30;4.17;;;19.10;99.90;;;;;;5020671;28;20508;-80
2021/08/01 06:12:37;;;;;;;9.57;4.67;;;19.20;99.90;;;;;;5014051;28;20983;-80
2021/08/01 06:15:13;;;;;;;6.63;3.70;;;19.50;99.90;;;;;;5019024;28;20824;-80
2021/08/01 06:21:37;;;;;;;6.33;3.60;;;19.70;99.90;;;;;;5015243;28;20533;-80
2021/08/01 06:24:37;;;;;;;4.80;3.57;;;19.70;99.90;;;;;;5026131;28;20475;-80
2021/08/01 06:27:07;;;;;;;5.00;2.93;;;19.90;99.90;;;;;;5034279;28;20454;-80
2021/08/01 06:33:37;;;;;;;7.33;3.00;;;20.00;99.90;;;;;;5034052;28;20461;-80
2021/08/01 06:36:09;;;;;;;3.33;3.03;;;20.00;99.90;;;;;;5034993;28;20394;-80
2021/08/01 06:38:38;;;;;;;5.70;3.07;;;20.10;99.90;;;;;;5035349;28;20430;-80
2021/08/01 06:41:37;;;;;;;4.27;2.30;;;20.30;99.90;;;;;;5032965;28;20437;-80
2021/08/01 06:44:07;;;;;;;4.67;2.87;;;20.30;99.90;;;;;;5023914;28;20419;-80
2021/08/01 06:46:37;;;;;;;3.27;2.47;;;20.40;99.90;;;;;;5034132;28;20901;-80
2021/08/01 06:49:38;;;;;;;4.90;2.87;;;20.40;99.90;;;;;;5016963;28;20433;-80
2021/08/01 06:52:37;;;;;;;5.87;2.90;;;20.50;99.90;;;;;;5014897;28;20462;-80
2021/08/01 06:55:37;;;;;;;3.30;2.90;;;20.60;99.90;;;;;;5031626;28;20424;-80
2021/08/01 06:58:07;;;;;;;3.30;2.50;;;20.70;99.90;;;;;;5034988;28;20412;-80
2021/08/01 07:01:07;;;;;;;4.00;2.23;;;20.70;99.90;;;;;;5034624;28;20404;-80
2021/08/01 07:03:37;;;;;;;5.37;3.00;;;20.70;99.90;;;;;;5032998;28;21000;-80
2021/08/01 07:06:03;;;;;;;5.97;2.93;;;;;;;;;;5034395;28;20467;-80
2021/08/01 07:08:37;;;;;;;5.63;3.03;;;20.90;99.90;;;;;;5032550;28;20389;-80
2021/08/01 07:11:37;;;;;;;3.60;2.50;;;21.00;99.90;;;;;;5022025;28;20413;-80
2021/08/01 07:14:07;;;;;;;3.53;2.83;;;21.00;99.90;;;;;;5021615;28;20515;-75
2021/08/01 07:16:52;;;;;;;5.17;3.30;;;21.10;99.90;;;;;;5031150;28;20436;-75
2021/08/01 07:19:18;;;;;;;3.20;2.63;;;21.10;99.90;;;;;;5028209;28;20930;-75
2021/08/01 07:21:49;;;;;;;8.87;2.93;;;21.20;99.90;;;;;;5019516;28;20420;-76
2021/08/01 07:24:15;;;;;;;4.00;3.37;;;21.30;99.90;;;;;;5034006;28;20177;-75
2021/08/01 07:26:40;;;;;;;3.30;3.00;;;21.30;99.90;;;;;;5015361;28;20413;-75
2021/08/01 07:29:07;;;;;;;7.93;3.30;;;21.30;99.90;;;;;;5023775;28;20251;-80
2021/08/01 07:31:37;;;;;;;4.53;3.10;;;21.30;99.90;;;;;;5033656;28;20618;-80
2021/08/01 07:34:07;;;;;;;11.03;3.30;;;21.30;99.90;;;;;;5027719;28;21033;-80
2021/08/01 07:36:37;;;;;;;5.47;3.17;;;21.40;99.90;;;;;;5014125;28;20444;-80
2021/08/01 07:39:19;;;;;;;5.43;3.30;;;21.40;99.90;;;;;;5022621;28;20429;-80
2021/08/01 07:42:16;;;;;;;4.50;2.90;;;21.40;99.90;;;;;;5033646;28;20386;-80
2021/08/01 07:45:15;;;;;;;6.20;3.00;;;21.40;99.90;;;;;;5033673;28;20399;-80
2021/08/01 07:48:07;;;;;;;5.87;3.00;;;21.40;99.90;;;;;;5033656;28;20397;-80
2021/08/01 07:50:37;;;;;;;5.90;2.33;;;21.50;99.90;;;;;;5033648;28;20397;-81
2021/08/01 07:53:15;;;;;;;5.63;3.20;;;21.70;99.90;;;;;;5033383;28;21027;-80
2021/08/01 07:59:13;;;;;;;2.60;2.40;;;21.80;99.90;;;;;;5033767;28;20402;-75
2021/08/01 08:01:49;;;;;;;6.63;2.60;;;21.90;99.90;;;;;;5033488;28;20931;-76
2021/08/01 08:04:19;;;;;;;4.40;2.80;;;22.10;99.90;;;;;;5033454;28;20412;-75
2021/08/01 08:06:45;;;;;;;5.13;2.30;;;22.10;99.90;;;;;;5033441;28;20915;-76
2021/08/01 08:09:26;;;;;;;14.90;2.63;;;22.10;99.90;;;;;;5029239;28;20421;-75
2021/08/01 08:11:52;;;;;;;4.43;2.43;;;22.20;99.90;;;;;;5019580;28;20172;-75
2021/08/01 08:14:17;;;;;;;5.33;2.87;;;22.10;99.90;;;;;;5024938;28;20989;-75
2021/08/01 08:16:43;;;;;;;10.27;3.07;;;22.00;99.90;;;;;;5035437;28;20222;-75
2021/08/01 08:19:27;;;;;;;2.93;2.70;;;21.80;99.90;;;;;;5036290;28;20193;-75
2021/08/01 08:21:59;;;;;;;4.23;2.60;;;22.00;99.90;;;;;;5037704;28;20168;-75
2021/08/01 08:24:26;;;;;;;3.10;2.40;;;22.10;99.90;;;;;;5031080;28;20418;-75
2021/08/01 08:26:53;;;;;;;2.43;2.23;;;22.20;99.90;;;;;;5017893;28;20400;-75
2021/08/01 08:29:33;;;;;;;5.63;2.70;;;22.30;99.90;;;;;;5017510;28;20438;-80
2021/08/01 08:32:07;;;;;;;4.10;2.37;;;22.40;99.90;;;;;;5017772;28;20465;-80
2021/08/01 08:34:37;;;;;;;4.77;3.03;;;22.40;99.90;;;;;;5031466;28;20953;-80
2021/08/01 08:37:03;;;;;;;2.10;1.90;;;22.30;99.90;;;;;;5037007;28;20434;-80
2021/08/01 08:39:31;;;;;;;2.33;2.13;;;22.30;99.10;;;;;;5037038;28;20424;-80
2021/08/01 08:42:07;;;;;;;4.27;2.10;;;22.10;99.90;;;;;;5036976;28;20441;-80
2021/08/01 08:45:04;;;;;;;3.07;2.10;;;22.30;99.90;;;;;;5037434;28;20402;-80
2021/08/01 08:47:36;;;;;;;2.30;2.10;;;22.30;95.70;;;;;;5036705;28;20479;-80
2021/08/01 08:50:11;;;;;;;3.27;1.90;;;22.30;94.40;;;;;;5019463;28;20414;-80
2021/08/01 08:52:37;;;;;;;2.70;1.97;;;22.40;97.00;;;;;;5030687;28;20434;-80
2021/08/01 08:55:08;;;;;;;1.93;1.80;;;22.50;95.50;;;;;;5028020;28;20526;-79
2021/08/01 08:57:41;;;;;;;2.60;2.20;;;22.60;92.90;;;;;;5025872;28;20846;-80
2021/08/01 09:00:21;;;;;;;3.83;2.00;;;22.70;94.20;;;;;;5035195;28;20427;-75
2021/08/01 09:02:47;;;;;;;2.47;1.90;;;;;;;;;;5026936;28;20389;-75
2021/08/01 09:05:13;;;;;;;9.40;2.20;;;22.90;92.30;;;;;;5024215;28;20423;-74
2021/08/01 09:07:50;;;;;;;2.60;1.73;;;;;;;;;;5032752;28;20473;-85
2021/08/01 09:10:15;;;;;;;3.53;1.87;;;23.10;89.10;;;;;;5023230;28;20395;-85
2021/08/01 09:12:47;;;;;;;2.73;1.80;;;23.40;84.40;;;;;;5032821;28;20501;-85
2021/08/01 09:15:27;;;;;;;3.70;1.87;;;23.40;87.60;;;;;;5015939;28;20166;-85
2021/08/01 09:18:12;;;;;;;1.70;1.60;;;23.50;89.50;;;;;;5031556;28;20832;-85
2021/08/01 09:21:07;;;;;;;11.13;1.97;;;23.70;82.80;;;;;;5030946;28;20425;-85
2021/08/01 09:23:37;;;;;;;4.27;1.50;;;23.70;86.60;;;;;;5035849;28;20773;-85
2021/08/01 09:26:05;;;;;;;6.20;1.60;;;23.60;72.30;;;;;;5035740;28;20481;-85
2021/08/01 09:28:37;;;;;;;3.37;2.00;;;23.50;77.00;;;;;;5035969;28;20436;-85
2021/08/01 09:31:07;;;;;;;1.47;1.37;;;23.40;72.60;;;;;;5036034;28;20495;-85
2021/08/01 09:37:05;;;;;;;1.80;1.67;;;23.60;70.90;;;;;;5036202;28;20393;-84
2021/08/01 09:40:13;;;;;;;3.80;1.47;;;23.60;70.20;;;;;;5035370;28;20429;-85
2021/08/01 09:49:30;;;;;;;2.70;1.67;;;24.10;64.80;;;;;;5035732;28;20757;-84
2021/08/01 09:52:01;;;;;;;3.20;1.50;;;24.20;65.20;;;;;;5023070;28;20445;-84
2021/08/01 09:55:01;;;;;;;1.70;1.60;;;24.30;64.20;;;;;;5030904;28;20453;-84
2021/08/01 09:57:52;;;;;;;2.63;1.53;;;24.20;59.60;;;;;;5016368;28;20368;-85
2021/08/01 10:00:57;;;;;;;4.20;1.50;;;24.20;62.70;;;;;;5015206;28;20512;-83
2021/08/01 10:03:49;;;;;;;1.23;1.10;;;24.10;63.10;;;;;;5015774;28;20475;-83
2021/08/01 10:06:21;;;;;;;1.53;1.40;;;24.20;58.40;;;;;;5031111;28;21059;-83
2021/08/01 10:08:51;;;;;;;1.53;1.07;;;24.30;58.70;;;;;;5035798;28;20444;-83
2021/08/01 10:11:26;;;;;;;1.97;1.40;;;;;;;;;;5035494;28;20401;-83
2021/08/01 10:17:13;;;;;;;3.00;1.40;;;23.80;62.00;;;;;;5029077;28;20422;-84
2021/08/01 10:23:00;;;;;;;1.50;1.20;;;23.90;61.70;;;;;;5015903;28;20186;-84
2021/08/01 10:32:12;;;;;;;2.90;1.50;;;24.00;64.10;;;;;;5022074;28;20445;-83
2021/08/01 10:34:46;;;;;;;7.03;1.30;;;23.90;62.70;;;;;;5026489;28;20468;-74
2021/08/01 10:37:24;;;;;;;2.17;1.57;;;24.00;59.50;;;;;;5034826;28;20434;-74
2021/08/01 10:39:56;;;;;;;1.63;1.10;;;24.20;56.60;;;;;;5023635;28;20460;-74
2021/08/01 10:42:26;;;;;;;1.73;1.50;;;24.50;60.90;;;;;;5026298;28;20845;-75
2021/08/01 10:51:38;;;;;;;1.47;1.20;;;24.90;53.90;;;;;;5026788;28;20917;-80
2021/08/01 11:04:50;;;;;;;1.27;1.20;;;25.30;42.00;;;;;;5022167;28;20844;-80
2021/08/01 11:07:28;;;;;;;2.23;1.90;;;25.70;40.40;;;;;;5031059;28;20480;-80
2021/08/01 11:16:43;;;;;;;1.83;1.37;;;26.10;42.60;;;;;;5018525;28;20487;-75
2021/08/01 11:19:32;;;;;;;2.10;1.53;;;26.10;40.60;;;;;;5020325;28;20422;-76
2021/08/01 11:21:58;;;;;;;2.70;1.60;;;26.30;40.80;;;;;;5034271;28;20414;-73
2021/08/01 11:24:23;;;;;;;1.47;1.37;;;26.20;40.30;;;;;;5032121;28;20571;-74
2021/08/01 11:27:09;;;;;;;2.53;1.40;;;26.20;40.70;;;;;;5024901;28;20179;-74
2021/08/01 11:30:08;;;;;;;3.17;1.40;;;26.10;36.00;;;;;;5029141;28;20430;-74
2021/08/01 11:32:55;;;;;;;4.77;1.30;;;26.00;38.70;;;;;;5025113;28;20406;-79
2021/08/01 11:46:00;;;;;;;3.47;1.23;;;26.10;40.60;;;;;;5030712;28;20466;-80
2021/08/01 11:48:43;;;;;;;1.77;1.50;;;26.00;38.60;;;;;;5013993;28;20764;-81
2021/08/01 11:51:43;;;;;;;2.40;1.73;;;25.90;37.80;;;;;;5013827;28;20401;-80
2021/08/01 12:04:15;;;;;;;2.30;1.73;;;26.30;38.80;;;;;;5033581;28;20787;-81
2021/08/01 12:06:43;;;;;;;1.73;1.47;;;26.30;42.70;;;;;;5032018;28;20414;-81
2021/08/01 12:12:37;;;;;;;2.20;1.60;;;26.10;40.60;;;;;;5033368;28;20393;-80
2021/08/01 12:15:15;;;;;;;1.97;1.50;;;25.90;40.50;;;;;;5032159;28;20418;-80
2021/08/01 12:18:02;;;;;;;2.50;1.53;;;25.70;40.40;;;;;;5021099;28;20430;-80
2021/08/01 12:20:49;;;;;;;1.80;1.70;;;25.40;40.20;;;;;;5026803;28;20412;-81
2021/08/01 12:26:43;;;;;;;6.20;1.40;;;25.20;40.00;;;;;;5026088;28;20410;-81
2021/08/01 12:29:27;;;;;;;1.50;1.40;;;25.30;40.10;;;;;;5032716;28;20940;-79
2021/08/01 12:32:24;;;;;;;3.23;1.67;;;25.40;40.20;;;;;;5030141;28;20479;-79
2021/08/01 12:34:59;;;;;;;2.10;1.90;;;25.40;40.20;;;;;;5023742;28;20548;-81
2021/08/01 12:37:25;;;;;;;2.27;1.37;;;25.40;40.20;;;;;;5028162;28;20551;-80
2021/08/01 12:39:52;;;;;;;1.90;1.73;;;25.40;42.80;;;;;;5032341;28;21134;-81
2021/08/01 12:42:19;;;;;;;1.93;1.80;;;25.50;42.20;;;;;;5016459;28;20420;-79
2021/08/01 12:44:53;;;;;;;2.70;1.73;;;25.40;35.50;;;;;;5027656;28;20430;-80
2021/08/01 12:47:19;;;;;;;2.50;1.90;;;25.40;30.10;;;;;;5019935;28;20476;-76
2021/08/01 12:49:45;;;;;;;7.30;1.60;;;25.40;40.20;;;;;;5032706;28;20416;-76
2021/08/01 12:52:11;;;;;;;3.27;1.80;;;25.40;40.20;;;;;;5020018;28;20465;-75
2021/08/01 12:54:37;;;;;;;1.93;1.50;;;25.50;40.20;;;;;;5025119;28;20982;-76
2021/08/01 12:57:05;;;;;;;37.97;2.83;;;25.60;40.30;;;;;;5021961;28;20186;-75
2021/08/01 12:59:32;;;;;;;12.13;1.60;;;26.00;37.50;;;;;;5033407;28;20439;-75
2021/08/01 13:16:02;;;;;;;1.77;1.50;;;27.00;28.50;;;;;;5034922;28;20561;-80
2021/08/01 13:18:34;;;;;;;9.73;2.17;;;27.20;29.40;;;;;;5025825;28;20461;-75
2021/08/01 13:21:19;;;;;;;2.10;1.57;;;27.30;26.60;;;;;;5026663;28;20783;-75
2021/08/01 13:23:46;;;;;;;3.53;1.53;;;27.30;26.60;;;;;;5035879;28;20401;-75
2021/08/01 13:26:32;;;;;;;2.60;1.30;;;27.20;25.60;;;;;;5036201;28;20437;-74
2021/08/01 13:29:06;;;;;;;3.53;1.33;;;27.10;27.10;;;;;;5034746;28;20422;-76
2021/08/01 13:32:05;;;;;;;6.47;1.60;;;26.80;26.70;;;;;;5018157;28;20742;-75
2021/08/01 13:34:42;;;;;;;2.50;1.37;;;26.70;26.50;;;;;;5036067;28;20453;-75
2021/08/01 13:37:29;;;;;;;3.17;1.13;;;26.70;23.10;;;;;;5022415;28;20801;-75
2021/08/01 13:39:57;;;;;;;19.00;1.77;;;26.70;26.80;;;;;;5034358;28;20905;-74
2021/08/01 13:42:47;;;;;;;9.17;1.33;;;26.70;26.00;;;;;;5035299;28;20534;-74
2021/08/01 13:45:15;;;;;;;1.70;1.60;;;26.60;21.10;;;;;;5034811;28;20491;-74
2021/08/01 13:47:50;;;;;;;5.87;1.40;;;26.50;23.30;;;;;;5029433;28;20744;-74
2021/08/01 13:50:16;;;;;;;2.70;1.33;;;;;;;;;;5036028;28;20750;-74
2021/08/01 13:52:47;;;;;;;3.90;1.10;;;26.30;21.90;;;;;;5021878;28;20440;-74
2021/08/01 13:55:15;;;;;;;3.33;1.30;;;26.10;21.90;;;;;;5015275;28;20426;-74
2021/08/01 13:57:44;;;;;;;5.70;1.07;;;26.00;24.00;;;;;;5029141;28;20425;-76
2021/08/01 14:00:11;;;;;;;19.87;1.63;;;25.80;24.70;;;;;;5024562;28;20414;-75
2021/08/01 14:02:36;;;;;;;20.93;1.30;;;25.80;24.60;;;;;;5016395;28;20390;-74
2021/08/01 14:05:13;;;;;;;4.60;1.13;;;25.80;26.60;;;;;;5026221;28;20512;-74
2021/08/01 14:07:39;;;;;;;11.80;0.93;;;25.80;20.20;;;;;;5023210;28;20174;-74
2021/08/01 14:10:06;;;;;;;2.30;0.83;;;25.60;18.60;;;;;;5030882;28;20480;-74
2021/08/01 14:12:32;;;;;;;10.93;1.33;;;25.40;19.70;;;;;;5034874;28;20254;-74
2021/08/01 14:14:59;;;;;;;20.30;1.63;;;25.30;18.00;;;;;;5035256;28;20511;-74
2021/08/01 14:17:25;;;;;;;13.60;1.20;;;25.40;20.60;;;;;;5023290;28;20641;-73
2021/08/01 14:19:51;;;;;;;1.67;0.80;;;25.30;20.50;;;;;;5034973;28;20431;-73
2021/08/01 14:22:18;;;;;;;2.30;0.80;;;25.30;17.70;;;;;;5035227;28;20436;-74
2021/08/01 14:24:44;;;;;;;0.80;0.70;;;25.30;18.50;;;;;;5029370;28;20514;-74
2021/08/01 14:27:11;;;;;;;1.50;0.90;;;25.60;20.20;;;;;;5026388;28;20497;-74
2021/08/01 14:29:42;;;;;;;0.80;0.77;;;25.60;21.70;;;;;;5028458;28;20167;-74
2021/08/01 14:32:11;;;;;;;4.37;0.70;;;25.90;15.90;;;;;;5014005;28;20844;-74
2021/08/01 14:35:08;;;;;;;1.87;0.70;;;26.00;15.80;;;;;;5029352;28;20449;-80
2021/08/01 14:40:56;;;;;;;1.50;0.70;;;26.50;12.30;;;;;;5014906;28;20413;-80
2021/08/01 14:46:43;;;;;;;11.03;0.80;;;26.80;10.20;;;;;;5016768;28;20397;-80
2021/08/01 14:49:34;;;;;;;6.63;0.80;;;26.90;13.70;;;;;;5033033;28;20423;-75
2021/08/01 14:54:30;;;;;;;3.37;0.80;;;27.10;9.90;;;;;;5035109;28;20443;-75
2021/08/01 14:57:14;;;;;;;1.43;0.67;;;27.10;11.30;;;;;;5033825;28;20423;-74
2021/08/01 14:59:44;;;;;;;2.30;0.80;;;27.20;11.00;;;;;;5034786;28;20404;-73
2021/08/01 15:02:40;;;;;;;3.90;0.70;;;27.30;14.50;;;;;;5034568;28;20401;-77
2021/08/01 15:05:49;;;;;;;0.80;0.80;;;27.50;6.30;;;;;;5034834;28;20441;-78
2021/08/01 15:08:41;;;;;;;17.13;0.90;;;27.40;7.20;;;;;;5018270;28;20428;-77
2021/08/01 15:11:38;;;;;;;7.30;1.10;;;27.60;7.00;;;;;;4954188;29;20804;-78
2021/08/01 15:17:29;;;;;;;6.47;1.40;;;27.60;7.50;;;;;;4973870;28;20442;-77
2021/08/01 15:20:13;;;;;;;0.70;0.63;;;27.60;8.80;;;;;;4966997;28;20444;-77
2021/08/01 15:26:25;;;;;;;3.77;0.77;;;27.90;7.50;;;;;;4972639;28;20416;-79
2021/08/01 15:32:17;;;;;;;3.43;0.83;;;31.40;1.00;;;;;;4972999;28;20405;-79
2021/08/01 15:38:22;;;;;;;4.43;0.80;;;33.00;1.00;;;;;;4972694;28;20445;-79
2021/08/01 15:40:50;;;;;;;3.00;0.70;;;32.30;1.00;;;;;;4956929;28;20894;-78
2021/08/01 15:43:19;;;;;;;15.90;0.80;;;32.80;1.00;;;;;;4973039;28;20572;-77
2021/08/01 15:52:43;;;;;;;28.57;1.20;;;35.00;1.00;;;;;;5029438;28;20426;-80
2021/08/01 15:55:17;;;;;;;5.53;1.10;;;36.20;1.00;;;;;;5013800;28;20412;-79
2021/08/01 16:01:30;;;;;;;5.03;1.00;;;36.00;1.00;;;;;;5031417;28;20817;-81
2021/08/01 16:04:24;;;;;;;2.63;0.70;;;36.00;1.00;;;;;;5033362;28;20511;-80
2021/08/01 16:06:54;;;;;;;2.73;0.70;;;38.20;1.00;;;;;;5033662;28;20465;-80
2021/08/01 16:12:55;;;;;;;2.20;0.70;;;40.50;1.00;;;;;;5031829;28;20905;-77
2021/08/01 16:15:29;;;;;;;7.10;1.13;;;40.10;1.00;;;;;;5020774;28;20419;-75
2021/08/01 16:17:57;;;;;;;8.80;0.80;;;39.10;1.00;;;;;;5016342;28;20851;-77
2021/08/01 16:20:23;;;;;;;2.30;0.90;;;37.30;1.00;;;;;;5013842;28;20781;-76
2021/08/01 16:22:50;;;;;;;3.07;0.80;;;37.30;1.00;;;;;;5030191;28;20415;-77
2021/08/01 16:25:22;;;;;;;2.40;0.80;;;37.80;1.00;;;;;;5031228;28;20510;-76
2021/08/01 16:27:51;;;;;;;1.23;1.00;;;38.90;1.00;;;;;;5031216;28;20484;-76
2021/08/01 16:31:01;;;;;;;1.70;1.20;;;39.30;1.00;;;;;;5030963;28;20403;-77
2021/08/01 16:36:49;;;;;;;16.77;1.50;;;37.70;1.00;;;;;;5013869;28;20462;-77
2021/08/01 16:39:15;;;;;;;4.20;0.90;;;37.40;1.00;;;;;;5017444;28;20400;-76
2021/08/01 16:45:21;;;;;;;8.80;1.30;;;33.10;1.00;;;;;;5017482;28;20219;-76
2021/08/01 16:48:43;;;;;;;11.20;1.20;;;32.00;1.00;;;;;;5017166;28;20495;-75
2021/08/01 16:51:25;;;;;;;2.30;0.80;;;31.80;1.00;;;;;;5017819;28;20393;-77
2021/08/01 16:54:16;;;;;;;2.87;1.10;;;31.20;1.00;;;;;;5022172;28;20465;-77
2021/08/01 16:57:18;;;;;;;3.60;0.90;;;30.50;1.00;;;;;;5036940;28;20915;-76
2021/08/01 17:00:04;;;;;;;2.53;1.20;;;28.90;1.00;;;;;;5036868;28;20394;-77
2021/08/01 17:03:13;;;;;;;5.30;1.10;;;28.80;1.00;;;;;;5036636;28;20420;-76
2021/08/01 17:09:49;;;;;;;1.30;1.03;;;27.70;1.00;;;;;;5016701;28;20404;-81
2021/08/01 17:15:36;;;;;;;3.33;1.80;;;26.00;1.30;;;;;;5036615;28;20437;-81
2021/08/01 17:18:03;;;;;;;9.33;1.43;;;25.60;3.20;;;;;;5025306;28;20834;-80
2021/08/01 17:20:49;;;;;;;13.80;1.50;;;25.60;5.00;;;;;;5033070;28;20592;-81
2021/08/01 17:23:15;;;;;;;2.53;1.20;;;25.10;7.10;;;;;;5017097;28;20405;-76
2021/08/01 17:25:41;;;;;;;18.63;2.27;;;24.80;9.50;;;;;;5043090;28;20815;-75